createdAt,value
2019-03-30T00:02:09.549Z,15.53
2019-03-30T00:04:43.642Z,15.95
2019-03-30T00:07:17.591Z,16.48
2019-03-30T00:09:51.606Z,15.83
2019-03-30T00:12:25.072Z,16.37
2019-03-30T00:14:59.182Z,17.00
2019-03-30T00:17:33.191Z,15.75
2019-03-30T00:20:07.625Z,16.15
2019-03-30T00:22:40.905Z,17.25
2019-03-30T00:25:15.848Z,16.07
2019-03-30T00:27:49.528Z,16.55
2019-03-30T00:30:22.937Z,17.42
2019-03-30T00:32:56.676Z,16.32
2019-03-30T00:35:30.029Z,15.65
2019-03-30T00:38:03.543Z,18.30
2019-03-30T00:40:37.868Z,16.93
2019-03-30T00:43:12.340Z,17.07
2019-03-30T00:45:45.799Z,17.77
2019-03-30T00:48:20.126Z,15.70
2019-03-30T00:50:53.878Z,16.67
2019-03-30T00:53:26.757Z,14.95
2019-03-30T00:56:00.397Z,16.15
2019-03-30T00:58:34.595Z,14.68
2019-03-30T01:01:08.735Z,15.32
2019-03-30T01:03:43.074Z,14.90
2019-03-30T01:06:17.505Z,16.30
2019-03-30T01:08:51.825Z,14.98
2019-03-30T01:11:25.346Z,17.07
2019-03-30T01:13:58.792Z,15.53
2019-03-30T01:16:32.721Z,15.60
2019-03-30T01:19:06.350Z,16.07
2019-03-30T01:21:40.195Z,17.32
2019-03-30T01:24:14.207Z,15.83
2019-03-30T01:26:48.224Z,16.95
2019-03-30T01:29:21.916Z,15.38
2019-03-30T01:31:55.856Z,16.05
2019-03-30T01:34:30.621Z,15.53
2019-03-30T01:37:04.543Z,16.65
2019-03-30T01:39:38.199Z,17.55
2019-03-30T01:42:12.313Z,16.20
2019-03-30T01:44:46.372Z,16.77
2019-03-30T01:47:20.194Z,16.42
2019-03-30T01:49:53.292Z,15.68
2019-03-30T01:52:27.083Z,15.68
2019-03-30T01:55:00.507Z,16.05
2019-03-30T01:57:34.418Z,17.07
2019-03-30T02:00:10.727Z,15.03
2019-03-30T02:02:45.336Z,14.98
2019-03-30T02:05:19.433Z,16.17
2019-03-30T02:07:53.022Z,15.98
2019-03-30T02:10:43.724Z,17.73
2019-03-30T02:13:17.661Z,14.83
2019-03-30T02:15:50.735Z,15.55
2019-03-30T02:18:24.633Z,16.50
2019-03-30T02:20:58.461Z,17.07
2019-03-30T02:23:32.455Z,15.98
2019-03-30T02:26:06.731Z,16.65
2019-03-30T02:28:40.600Z,14.90
2019-03-30T02:31:14.529Z,15.88
2019-03-30T02:33:48.398Z,15.05
2019-03-30T02:36:21.662Z,13.85
2019-03-30T02:38:54.847Z,15.20
2019-03-30T02:41:28.379Z,15.23
2019-03-30T02:44:02.051Z,15.53
2019-03-30T02:46:36.004Z,16.27
2019-03-30T02:49:10.006Z,13.38
2019-03-30T02:51:43.511Z,15.43
2019-03-30T02:54:16.606Z,16.17
2019-03-30T02:56:50.603Z,15.60
2019-03-30T02:59:24.610Z,15.38
2019-03-30T03:01:58.503Z,15.35
2019-03-30T03:04:32.050Z,15.28
2019-03-30T03:07:06.276Z,15.45
2019-03-30T03:09:40.782Z,15.48
2019-03-30T03:12:13.847Z,15.18
2019-03-30T03:14:47.719Z,15.58
2019-03-30T13:22:02.809Z,12.17
2019-03-30T13:24:36.646Z,12.27
2019-03-30T13:27:12.968Z,10.60
2019-03-30T13:29:48.422Z,12.17
2019-03-30T13:32:22.036Z,12.83
2019-03-30T13:34:56.007Z,11.60
2019-03-30T13:37:29.982Z,12.97
2019-03-30T13:40:04.142Z,12.00
2019-03-30T13:42:38.808Z,12.00
2019-03-30T13:45:19.846Z,12.27
2019-03-30T13:47:54.084Z,11.80
2019-03-30T13:50:30.830Z,9.70
2019-03-30T13:53:05.724Z,11.23
2019-03-30T13:55:40.196Z,12.63
2019-03-30T13:58:15.493Z,11.00
2019-03-30T14:00:49.629Z,11.67
2019-03-30T14:03:23.744Z,10.30
2019-03-30T14:05:56.739Z,9.53
2019-03-30T14:08:34.549Z,9.90
2019-03-30T14:11:08.113Z,10.67
2019-03-30T14:13:43.915Z,10.33
2019-03-30T14:16:18.854Z,11.63
2019-03-30T14:18:52.022Z,9.10
2019-03-30T14:21:26.059Z,10.80
2019-03-30T14:24:00.435Z,10.20
2019-03-30T14:26:35.878Z,11.70
2019-03-30T14:29:10.305Z,11.13
2019-03-30T14:31:43.997Z,11.37
2019-03-30T14:34:18.300Z,11.97
2019-03-30T14:36:54.437Z,11.00
2019-03-30T14:39:28.820Z,12.03
2019-03-30T14:42:02.458Z,11.20
2019-03-30T14:44:36.075Z,11.70
2019-03-30T14:47:10.155Z,10.43
2019-03-30T14:49:43.921Z,10.93
2019-03-30T14:52:17.529Z,10.53
2019-03-30T14:54:53.102Z,9.83
2019-03-30T14:57:26.320Z,9.30
2019-03-30T15:00:00.100Z,9.90
2019-03-30T15:02:34.883Z,9.20
2019-03-30T15:05:08.404Z,10.40
2019-03-30T15:07:42.610Z,8.63
2019-03-30T15:10:16.662Z,10.20
2019-03-30T15:12:49.897Z,10.00
2019-03-30T15:15:23.948Z,10.70
2019-03-30T15:18:00.278Z,10.13
2019-03-30T15:20:35.970Z,10.23
2019-03-30T15:23:10.362Z,9.07
2019-03-30T15:25:45.237Z,9.27
2019-03-30T15:28:19.602Z,9.73
2019-03-30T15:30:55.417Z,9.50
2019-03-30T15:33:29.963Z,10.03
2019-03-30T15:36:05.264Z,10.07
2019-03-30T15:38:38.876Z,9.83
2019-03-30T15:41:16.629Z,9.97
2019-03-30T15:43:52.633Z,10.40
2019-03-30T15:46:26.900Z,9.53
2019-03-30T15:49:03.777Z,9.60
2019-03-30T15:51:37.735Z,10.80
2019-03-30T15:54:13.475Z,11.50
2019-03-30T15:56:48.878Z,10.87
2019-03-30T15:59:23.877Z,9.17
2019-03-30T16:01:57.881Z,10.73
2019-03-30T16:04:32.634Z,10.40
2019-03-30T16:07:08.679Z,11.00
2019-03-30T16:09:42.667Z,11.10
2019-03-30T16:12:17.263Z,10.60
2019-03-30T16:14:52.033Z,9.70
2019-03-30T16:17:25.867Z,9.80
2019-03-30T16:20:00.182Z,10.20
2019-03-30T16:22:34.442Z,9.50
2019-03-30T16:25:08.663Z,10.67
2019-03-30T16:27:42.107Z,10.00
2019-03-30T16:30:17.506Z,10.70
2019-03-30T16:32:51.636Z,9.70
2019-03-30T16:35:25.127Z,9.90
2019-03-30T16:38:00.288Z,11.40
2019-03-30T16:40:33.803Z,9.37
2019-03-30T16:43:08.557Z,9.10
2019-03-30T16:45:42.694Z,10.70
2019-03-30T16:48:16.520Z,10.20
2019-03-30T16:50:50.191Z,11.17
2019-03-30T16:53:23.801Z,10.50
2019-03-30T16:55:57.276Z,9.63
2019-03-30T16:58:31.421Z,11.20
2019-03-30T17:01:05.442Z,10.30
2019-03-30T17:03:38.683Z,10.20
2019-03-30T17:06:12.725Z,9.60
2019-03-30T17:08:46.776Z,9.90
2019-03-30T17:11:20.661Z,11.00
2019-03-30T17:13:54.101Z,10.70
2019-03-30T17:16:28.709Z,10.97
2019-03-30T17:19:02.606Z,9.97
2019-03-30T17:21:35.868Z,10.40
2019-03-30T17:24:09.437Z,9.43
2019-03-30T17:26:43.030Z,9.67
2019-03-30T17:29:16.834Z,11.40
2019-03-30T17:31:50.753Z,9.90
2019-03-30T17:34:24.513Z,12.00
2019-03-30T17:36:58.381Z,10.93
2019-03-30T17:39:31.744Z,10.70
2019-03-30T17:42:05.460Z,11.90
2019-03-30T17:44:40.514Z,34.23
2019-03-30T17:47:13.771Z,12.17
2019-03-30T17:49:48.454Z,13.40
2019-03-30T17:52:22.030Z,14.97
2019-03-30T17:54:56.363Z,10.53
2019-03-30T17:57:29.960Z,15.83
2019-03-30T18:00:03.746Z,13.97
2019-03-30T18:02:38.024Z,12.95
2019-03-30T18:05:12.134Z,13.00
2019-03-30T18:07:46.636Z,15.50
2019-03-30T18:10:21.174Z,12.45
2019-03-30T18:12:55.976Z,12.80
2019-03-30T18:15:29.681Z,11.37
2019-03-30T18:18:04.207Z,11.73
2019-03-30T18:20:37.578Z,11.87
2019-03-30T18:23:11.331Z,12.40
2019-03-30T18:25:44.697Z,13.35
2019-03-30T18:28:27.107Z,13.80
2019-03-30T18:30:54.726Z,17.80
2019-03-30T18:33:29.201Z,13.30
2019-03-30T18:36:03.506Z,12.03
2019-03-30T18:38:39.589Z,11.88
2019-03-30T18:41:13.513Z,13.10
2019-03-30T18:43:47.477Z,13.65
2019-03-30T18:46:20.373Z,12.13
2019-03-30T18:48:54.580Z,13.05
2019-03-30T18:51:29.098Z,13.20
2019-03-30T18:54:04.090Z,13.80
2019-03-30T18:56:38.525Z,14.85
2019-03-30T18:59:12.423Z,14.55
2019-03-30T19:01:46.145Z,15.20
2019-03-30T19:04:20.676Z,15.10
2019-03-30T19:06:54.855Z,13.88
2019-03-30T19:09:28.911Z,13.58
2019-03-30T19:12:03.684Z,13.75
2019-03-30T19:14:37.365Z,14.58
2019-03-30T19:17:11.460Z,14.10
2019-03-30T19:19:45.556Z,13.50
2019-03-30T19:22:19.794Z,13.75
2019-03-30T19:24:53.885Z,13.68
2019-03-30T19:27:27.681Z,13.68
2019-03-30T19:30:01.753Z,14.03
2019-03-30T19:32:36.347Z,13.70
2019-03-30T19:35:10.414Z,13.90
2019-03-30T19:37:44.498Z,14.90
2019-03-30T19:40:18.550Z,16.60
2019-03-30T19:42:52.280Z,16.57
2019-03-30T19:45:26.119Z,15.13
2019-03-30T19:48:00.167Z,14.10
2019-03-30T19:50:34.540Z,14.05
2019-03-30T19:53:08.952Z,13.45
2019-03-30T19:55:43.508Z,16.82
2019-03-30T19:58:17.220Z,16.60
2019-03-30T20:00:51.514Z,15.93
2019-03-30T20:03:25.903Z,15.43
2019-03-30T20:05:59.942Z,15.03
2019-03-30T20:08:33.742Z,14.07
2019-03-30T20:11:08.286Z,14.00
2019-03-30T20:13:42.344Z,15.60
2019-03-30T20:16:16.378Z,15.13
2019-03-30T20:18:50.193Z,15.30
2019-03-30T20:21:23.044Z,14.43
2019-03-30T20:23:56.240Z,14.75
2019-03-30T20:26:29.820Z,15.13
2019-03-30T20:29:03.675Z,14.23
2019-03-30T20:31:37.781Z,14.58
2019-03-30T20:34:12.799Z,15.35
2019-03-30T20:36:46.736Z,14.45
2019-03-30T20:39:20.082Z,16.70
2019-03-30T20:41:53.880Z,17.80
2019-03-30T20:44:27.596Z,16.73
2019-03-30T20:47:01.041Z,17.87
2019-03-30T20:49:34.797Z,18.30
2019-03-30T20:52:08.848Z,19.32
2019-03-30T20:54:42.922Z,18.70
2019-03-30T20:57:17.443Z,21.87
2019-03-30T20:59:50.992Z,22.20
2019-03-30T21:02:24.946Z,22.37
2019-03-30T21:04:58.657Z,21.90
2019-03-30T21:07:32.019Z,23.00
2019-03-30T21:10:07.194Z,24.45
2019-03-30T21:12:41.712Z,25.20
2019-03-30T21:15:15.462Z,24.70
2019-03-30T21:17:49.145Z,25.88
2019-03-30T21:20:23.574Z,27.10
2019-03-30T21:22:57.595Z,28.60
2019-03-30T21:25:31.945Z,27.22
2019-03-30T21:28:06.001Z,27.62
2019-03-30T21:30:40.005Z,30.12
2019-03-30T21:33:14.032Z,28.32
2019-03-30T21:35:48.238Z,28.73
2019-03-30T21:38:23.126Z,30.37
2019-03-30T21:40:57.036Z,30.55
2019-03-30T21:43:31.154Z,30.68
2019-03-30T21:46:05.704Z,31.40
2019-03-30T21:48:40.160Z,35.25
2019-03-30T21:51:14.293Z,32.38
2019-03-30T21:53:48.494Z,35.50
2019-03-30T21:56:22.193Z,36.55
2019-03-30T21:58:56.365Z,34.67
2019-03-30T22:01:30.463Z,37.38
2019-03-30T22:04:04.733Z,38.38
2019-03-30T22:06:38.189Z,36.73
2019-03-30T22:09:12.501Z,37.03
2019-03-30T22:11:46.055Z,37.30
2019-03-30T22:14:20.410Z,36.38
2019-03-30T22:16:54.877Z,36.25
2019-03-30T22:19:28.270Z,37.03
2019-03-30T22:22:02.699Z,35.58
2019-03-30T22:24:36.314Z,37.30
2019-03-30T22:27:10.059Z,36.30
2019-03-30T22:29:43.190Z,38.25
2019-03-30T22:32:17.097Z,38.80
2019-03-30T22:34:50.632Z,41.00
2019-03-30T22:37:24.248Z,46.25
2019-03-30T22:39:57.760Z,42.88
2019-03-30T22:42:31.955Z,44.18
2019-03-30T22:45:07.253Z,42.35
2019-03-30T22:47:41.775Z,44.23
2019-03-30T22:50:16.442Z,42.50
2019-03-30T22:52:50.328Z,43.25
2019-03-30T22:55:24.376Z,42.60
2019-03-30T22:57:58.963Z,43.50
2019-03-30T23:00:50.556Z,47.38
2019-03-30T23:03:25.197Z,43.42
2019-03-30T23:05:59.530Z,46.42
2019-03-30T23:08:33.460Z,47.13
2019-03-30T23:11:07.355Z,46.48
2019-03-30T23:13:41.395Z,42.67
2019-03-30T23:16:14.873Z,47.55
2019-03-30T23:18:48.388Z,44.75
2019-03-30T23:21:21.646Z,47.60
2019-03-30T23:23:55.212Z,46.28
2019-03-30T23:26:28.596Z,43.20
2019-03-30T23:29:03.584Z,42.90
2019-03-30T23:31:38.263Z,40.92
2019-03-30T23:34:11.957Z,43.85
2019-03-30T23:36:45.939Z,46.33
2019-03-30T23:39:19.208Z,43.63
2019-03-30T23:41:52.889Z,41.42
2019-03-30T23:44:26.749Z,41.37
2019-03-30T23:47:00.863Z,41.63
2019-03-30T23:49:34.799Z,43.08
2019-03-30T23:52:08.385Z,43.70
2019-03-30T23:54:42.184Z,44.48
2019-03-30T23:57:16.090Z,45.38
2019-03-30T23:59:50.147Z,46.33
